sensor_id;sensor_type;location;lat;lon;timestamp;pressure;altitude;pressure_sealevel;temperature
9119;BMP180;4594;50.994;7.126;2024-03-07T00:00:09;101455.00;;;9.90
9119;BMP180;4594;50.994;7.126;2024-03-07T00:02:49;101463.00;;;9.80
9119;BMP180;4594;50.994;7.126;2024-03-07T00:05:19;101453.00;;;9.80
9119;BMP180;4594;50.994;7.126;2024-03-07T00:07:46;101431.00;;;9.80
9119;BMP180;4594;50.994;7.126;2024-03-07T00:10:12;101436.00;;;9.70
9119;BMP180;4594;50.994;7.126;2024-03-07T00:12:39;101456.00;;;9.70
9119;BMP180;4594;50.994;7.126;2024-03-07T00:15:11;101455.00;;;9.60
9119;BMP180;4594;50.994;7.126;2024-03-07T00:17:38;101455.00;;;9.60
9119;BMP180;4594;50.994;7.126;2024-03-07T00:20:06;101458.00;;;9.40
9119;BMP180;4594;50.994;7.126;2024-03-07T00:22:40;101459.00;;;9.40
9119;BMP180;4594;50.994;7.126;2024-03-07T00:25:07;101462.00;;;9.40
9119;BMP180;4594;50.994;7.126;2024-03-07T00:27:35;101470.00;;;9.30
9119;BMP180;4594;50.994;7.126;2024-03-07T00:30:02;101452.00;;;9.30
9119;BMP180;4594;50.994;7.126;2024-03-07T00:32:30;101462.00;;;9.30
9119;BMP180;4594;50.994;7.126;2024-03-07T00:35:01;101435.00;;;9.20
9119;BMP180;4594;50.994;7.126;2024-03-07T00:37:29;101435.00;;;9.20
9119;BMP180;4594;50.994;7.126;2024-03-07T00:39:56;101458.00;;;9.20
9119;BMP180;4594;50.994;7.126;2024-03-07T00:42:22;101467.00;;;9.10
9119;BMP180;4594;50.994;7.126;2024-03-07T00:44:48;101437.00;;;9.10
9119;BMP180;4594;50.994;7.126;2024-03-07T00:47:15;101468.00;;;9.00
9119;BMP180;4594;50.994;7.126;2024-03-07T00:49:44;101452.00;;;9.00
9119;BMP180;4594;50.994;7.126;2024-03-07T00:52:12;101467.00;;;9.00
9119;BMP180;4594;50.994;7.126;2024-03-07T00:54:38;101459.00;;;8.90
9119;BMP180;4594;50.994;7.126;2024-03-07T00:57:04;101450.00;;;8.80
9119;BMP180;4594;50.994;7.126;2024-03-07T00:59:30;101458.00;;;8.80
9119;BMP180;4594;50.994;7.126;2024-03-07T01:01:56;101457.00;;;8.80
9119;BMP180;4594;50.994;7.126;2024-03-07T01:04:21;101463.00;;;8.70
9119;BMP180;4594;50.994;7.126;2024-03-07T01:06:48;101468.00;;;8.70
9119;BMP180;4594;50.994;7.126;2024-03-07T01:09:14;101457.00;;;8.60
9119;BMP180;4594;50.994;7.126;2024-03-07T01:11:43;101457.00;;;8.60
9119;BMP180;4594;50.994;7.126;2024-03-07T01:14:09;101453.00;;;8.60
9119;BMP180;4594;50.994;7.126;2024-03-07T01:16:35;101462.00;;;8.50
9119;BMP180;4594;50.994;7.126;2024-03-07T01:19:01;101451.00;;;8.50
9119;BMP180;4594;50.994;7.126;2024-03-07T01:21:27;101454.00;;;8.50
9119;BMP180;4594;50.994;7.126;2024-03-07T01:23:53;101450.00;;;8.40
9119;BMP180;4594;50.994;7.126;2024-03-07T01:26:19;101448.00;;;8.40
9119;BMP180;4594;50.994;7.126;2024-03-07T01:28:44;101446.00;;;8.30
9119;BMP180;4594;50.994;7.126;2024-03-07T01:31:10;101452.00;;;8.30
9119;BMP180;4594;50.994;7.126;2024-03-07T01:33:37;101441.00;;;8.30
9119;BMP180;4594;50.994;7.126;2024-03-07T01:36:03;101434.00;;;8.30
9119;BMP180;4594;50.994;7.126;2024-03-07T01:38:30;101441.00;;;8.20
9119;BMP180;4594;50.994;7.126;2024-03-07T01:40:56;101435.00;;;8.20
9119;BMP180;4594;50.994;7.126;2024-03-07T01:43:21;101422.00;;;8.20
9119;BMP180;4594;50.994;7.126;2024-03-07T01:45:47;101427.00;;;8.10
9119;BMP180;4594;50.994;7.126;2024-03-07T01:48:27;101425.00;;;8.10
9119;BMP180;4594;50.994;7.126;2024-03-07T01:51:00;101426.00;;;8.10
9119;BMP180;4594;50.994;7.126;2024-03-07T01:53:28;101416.00;;;8.10
9119;BMP180;4594;50.994;7.126;2024-03-07T01:55:54;101416.00;;;8.00
9119;BMP180;4594;50.994;7.126;2024-03-07T01:58:21;101420.00;;;8.00
9119;BMP180;4594;50.994;7.126;2024-03-07T02:00:47;101414.00;;;8.00
9119;BMP180;4594;50.994;7.126;2024-03-07T02:03:17;101413.00;;;7.90
9119;BMP180;4594;50.994;7.126;2024-03-07T02:05:43;101406.00;;;7.90
9119;BMP180;4594;50.994;7.126;2024-03-07T02:08:09;101394.00;;;7.90
9119;BMP180;4594;50.994;7.126;2024-03-07T02:10:35;101402.00;;;7.90
9119;BMP180;4594;50.994;7.126;2024-03-07T02:13:00;101394.00;;;7.90
9119;BMP180;4594;50.994;7.126;2024-03-07T02:15:27;101405.00;;;7.80
9119;BMP180;4594;50.994;7.126;2024-03-07T02:17:53;101404.00;;;7.80
9119;BMP180;4594;50.994;7.126;2024-03-07T02:20:19;101395.00;;;7.80
9119;BMP180;4594;50.994;7.126;2024-03-07T02:22:44;101393.00;;;7.80
9119;BMP180;4594;50.994;7.126;2024-03-07T02:25:10;101397.00;;;7.80
9119;BMP180;4594;50.994;7.126;2024-03-07T02:27:38;101385.00;;;7.80
9119;BMP180;4594;50.994;7.126;2024-03-07T02:30:05;101376.00;;;7.70
9119;BMP180;4594;50.994;7.126;2024-03-07T02:32:34;101389.00;;;7.70
9119;BMP180;4594;50.994;7.126;2024-03-07T02:35:00;101384.00;;;7.70
9119;BMP180;4594;50.994;7.126;2024-03-07T02:37:26;101390.00;;;7.70
9119;BMP180;4594;50.994;7.126;2024-03-07T02:39:52;101395.00;;;7.70
9119;BMP180;4594;50.994;7.126;2024-03-07T02:42:17;101383.00;;;7.70
9119;BMP180;4594;50.994;7.126;2024-03-07T02:44:43;101373.00;;;7.70
9119;BMP180;4594;50.994;7.126;2024-03-07T02:47:09;101375.00;;;7.70
9119;BMP180;4594;50.994;7.126;2024-03-07T02:49:34;101374.00;;;7.70
9119;BMP180;4594;50.994;7.126;2024-03-07T02:52:00;101375.00;;;7.70
9119;BMP180;4594;50.994;7.126;2024-03-07T02:54:26;101375.00;;;7.70
9119;BMP180;4594;50.994;7.126;2024-03-07T02:56:51;101369.00;;;7.60
9119;BMP180;4594;50.994;7.126;2024-03-07T02:59:17;101363.00;;;7.60
9119;BMP180;4594;50.994;7.126;2024-03-07T03:01:43;101373.00;;;7.60
9119;BMP180;4594;50.994;7.126;2024-03-07T03:04:09;101376.00;;;7.60
9119;BMP180;4594;50.994;7.126;2024-03-07T03:06:34;101385.00;;;7.60
9119;BMP180;4594;50.994;7.126;2024-03-07T03:09:00;101363.00;;;7.60
9119;BMP180;4594;50.994;7.126;2024-03-07T03:11:26;101376.00;;;7.60
9119;BMP180;4594;50.994;7.126;2024-03-07T03:13:53;101386.00;;;7.60
9119;BMP180;4594;50.994;7.126;2024-03-07T03:16:18;101370.00;;;7.60
9119;BMP180;4594;50.994;7.126;2024-03-07T03:18:44;101368.00;;;7.60
9119;BMP180;4594;50.994;7.126;2024-03-07T03:21:10;101366.00;;;7.60
9119;BMP180;4594;50.994;7.126;2024-03-07T03:23:36;101359.00;;;7.60
9119;BMP180;4594;50.994;7.126;2024-03-07T03:26:01;101370.00;;;7.60
9119;BMP180;4594;50.994;7.126;2024-03-07T03:28:27;101364.00;;;7.60
9119;BMP180;4594;50.994;7.126;2024-03-07T03:30:53;101347.00;;;7.60
9119;BMP180;4594;50.994;7.126;2024-03-07T03:33:19;101355.00;;;7.50
9119;BMP180;4594;50.994;7.126;2024-03-07T03:35:46;101348.00;;;7.60
9119;BMP180;4594;50.994;7.126;2024-03-07T03:38:13;101352.00;;;7.50
9119;BMP180;4594;50.994;7.126;2024-03-07T03:40:39;101349.00;;;7.50
9119;BMP180;4594;50.994;7.126;2024-03-07T03:43:05;101364.00;;;7.50
9119;BMP180;4594;50.994;7.126;2024-03-07T03:45:31;101360.00;;;7.50
9119;BMP180;4594;50.994;7.126;2024-03-07T03:47:59;101345.00;;;7.50
9119;BMP180;4594;50.994;7.126;2024-03-07T03:50:25;101341.00;;;7.50
9119;BMP180;4594;50.994;7.126;2024-03-07T03:52:52;101347.00;;;7.50
9119;BMP180;4594;50.994;7.126;2024-03-07T03:55:17;101330.00;;;7.50
9119;BMP180;4594;50.994;7.126;2024-03-07T03:57:44;101345.00;;;7.50
9119;BMP180;4594;50.994;7.126;2024-03-07T04:00:12;101346.00;;;7.50
9119;BMP180;4594;50.994;7.126;2024-03-07T04:02:44;101341.00;;;7.50
9119;BMP180;4594;50.994;7.126;2024-03-07T04:05:19;101345.00;;;7.50
9119;BMP180;4594;50.994;7.126;2024-03-07T04:07:45;101335.00;;;7.50
9119;BMP180;4594;50.994;7.126;2024-03-07T04:10:12;101336.00;;;7.50
9119;BMP180;4594;50.994;7.126;2024-03-07T04:12:41;101345.00;;;7.50
9119;BMP180;4594;50.994;7.126;2024-03-07T04:15:09;101333.00;;;7.50
9119;BMP180;4594;50.994;7.126;2024-03-07T04:17:37;101333.00;;;7.50
9119;BMP180;4594;50.994;7.126;2024-03-07T04:20:05;101333.00;;;7.50
9119;BMP180;4594;50.994;7.126;2024-03-07T04:22:32;101318.00;;;7.50
9119;BMP180;4594;50.994;7.126;2024-03-07T04:24:59;101330.00;;;7.60
9119;BMP180;4594;50.994;7.126;2024-03-07T04:27:24;101330.00;;;7.60
9119;BMP180;4594;50.994;7.126;2024-03-07T04:29:52;101332.00;;;7.60
9119;BMP180;4594;50.994;7.126;2024-03-07T04:32:18;101333.00;;;7.50
9119;BMP180;4594;50.994;7.126;2024-03-07T04:34:44;101326.00;;;7.60
9119;BMP180;4594;50.994;7.126;2024-03-07T04:37:10;101336.00;;;7.50
9119;BMP180;4594;50.994;7.126;2024-03-07T04:39:38;101334.00;;;7.60
9119;BMP180;4594;50.994;7.126;2024-03-07T04:42:05;101332.00;;;7.60
9119;BMP180;4594;50.994;7.126;2024-03-07T04:44:33;101328.00;;;7.50
9119;BMP180;4594;50.994;7.126;2024-03-07T04:47:03;101327.00;;;7.50
9119;BMP180;4594;50.994;7.126;2024-03-07T04:49:30;101333.00;;;7.50
9119;BMP180;4594;50.994;7.126;2024-03-07T04:51:59;101318.00;;;7.50
9119;BMP180;4594;50.994;7.126;2024-03-07T04:54:26;101324.00;;;7.50
9119;BMP180;4594;50.994;7.126;2024-03-07T04:56:52;101317.00;;;7.50
9119;BMP180;4594;50.994;7.126;2024-03-07T04:59:20;101319.00;;;7.50
9119;BMP180;4594;50.994;7.126;2024-03-07T05:01:47;101327.00;;;7.50
9119;BMP180;4594;50.994;7.126;2024-03-07T05:04:14;101326.00;;;7.50
9119;BMP180;4594;50.994;7.126;2024-03-07T05:06:41;101322.00;;;7.50
9119;BMP180;4594;50.994;7.126;2024-03-07T05:09:09;101320.00;;;7.50
9119;BMP180;4594;50.994;7.126;2024-03-07T05:11:36;101330.00;;;7.50
9119;BMP180;4594;50.994;7.126;2024-03-07T05:14:03;101326.00;;;7.50
9119;BMP180;4594;50.994;7.126;2024-03-07T05:16:30;101325.00;;;7.40
9119;BMP180;4594;50.994;7.126;2024-03-07T05:18:59;101329.00;;;7.40
9119;BMP180;4594;50.994;7.126;2024-03-07T05:21:26;101323.00;;;7.40
9119;BMP180;4594;50.994;7.126;2024-03-07T05:24:00;101326.00;;;7.40
9119;BMP180;4594;50.994;7.126;2024-03-07T05:26:29;101335.00;;;7.40
9119;BMP180;4594;50.994;7.126;2024-03-07T05:29:01;101337.00;;;7.40
9119;BMP180;4594;50.994;7.126;2024-03-07T05:31:31;101348.00;;;7.30
9119;BMP180;4594;50.994;7.126;2024-03-07T05:34:01;101336.00;;;7.30
9119;BMP180;4594;50.994;7.126;2024-03-07T05:36:32;101336.00;;;7.30
9119;BMP180;4594;50.994;7.126;2024-03-07T05:38:58;101327.00;;;7.30
9119;BMP180;4594;50.994;7.126;2024-03-07T05:41:25;101337.00;;;7.30
9119;BMP180;4594;50.994;7.126;2024-03-07T05:43:53;101335.00;;;7.20
9119;BMP180;4594;50.994;7.126;2024-03-07T05:46:19;101333.00;;;7.20
9119;BMP180;4594;50.994;7.126;2024-03-07T05:48:45;101340.00;;;7.20
9119;BMP180;4594;50.994;7.126;2024-03-07T05:51:15;101341.00;;;7.20
9119;BMP180;4594;50.994;7.126;2024-03-07T05:53:41;101327.00;;;7.20
9119;BMP180;4594;50.994;7.126;2024-03-07T05:56:07;101325.00;;;7.20
9119;BMP180;4594;50.994;7.126;2024-03-07T05:58:33;101339.00;;;7.20
9119;BMP180;4594;50.994;7.126;2024-03-07T06:00:59;101337.00;;;7.10
9119;BMP180;4594;50.994;7.126;2024-03-07T06:03:25;101332.00;;;7.10
9119;BMP180;4594;50.994;7.126;2024-03-07T06:05:51;101331.00;;;7.20
9119;BMP180;4594;50.994;7.126;2024-03-07T06:08:20;101329.00;;;7.20
9119;BMP180;4594;50.994;7.126;2024-03-07T06:10:47;101324.00;;;7.20
9119;BMP180;4594;50.994;7.126;2024-03-07T06:13:15;101322.00;;;7.20
9119;BMP180;4594;50.994;7.126;2024-03-07T06:15:45;101325.00;;;7.30
9119;BMP180;4594;50.994;7.126;2024-03-07T06:18:12;101332.00;;;7.30
9119;BMP180;4594;50.994;7.126;2024-03-07T06:20:42;101331.00;;;7.30
9119;BMP180;4594;50.994;7.126;2024-03-07T06:23:09;101330.00;;;7.30
9119;BMP180;4594;50.994;7.126;2024-03-07T06:25:37;101328.00;;;7.40
9119;BMP180;4594;50.994;7.126;2024-03-07T06:28:13;101329.00;;;7.40
9119;BMP180;4594;50.994;7.126;2024-03-07T06:30:41;101320.00;;;7.50
9119;BMP180;4594;50.994;7.126;2024-03-07T06:33:09;101327.00;;;7.50
9119;BMP180;4594;50.994;7.126;2024-03-07T06:35:35;101333.00;;;7.60
9119;BMP180;4594;50.994;7.126;2024-03-07T06:38:05;101327.00;;;7.80
9119;BMP180;4594;50.994;7.126;2024-03-07T06:40:38;101341.00;;;7.90
9119;BMP180;4594;50.994;7.126;2024-03-07T06:43:06;101331.00;;;8.10
9119;BMP180;4594;50.994;7.126;2024-03-07T06:45:39;101331.00;;;8.20
9119;BMP180;4594;50.994;7.126;2024-03-07T06:48:06;101332.00;;;8.40
9119;BMP180;4594;50.994;7.126;2024-03-07T06:50:37;101339.00;;;8.70
9119;BMP180;4594;50.994;7.126;2024-03-07T06:53:04;101336.00;;;8.90
9119;BMP180;4594;50.994;7.126;2024-03-07T06:55:32;101331.00;;;9.20
9119;BMP180;4594;50.994;7.126;2024-03-07T06:58:01;101332.00;;;9.50
9119;BMP180;4594;50.994;7.126;2024-03-07T07:00:30;101340.00;;;9.80
9119;BMP180;4594;50.994;7.126;2024-03-07T07:02:57;101333.00;;;10.10
9119;BMP180;4594;50.994;7.126;2024-03-07T07:05:23;101336.00;;;10.30
9119;BMP180;4594;50.994;7.126;2024-03-07T07:07:49;101338.00;;;10.50
9119;BMP180;4594;50.994;7.126;2024-03-07T07:10:14;101344.00;;;10.80
9119;BMP180;4594;50.994;7.126;2024-03-07T07:12:50;101345.00;;;11.10
9119;BMP180;4594;50.994;7.126;2024-03-07T07:15:18;101346.00;;;11.40
9119;BMP180;4594;50.994;7.126;2024-03-07T07:17:47;101341.00;;;11.80
9119;BMP180;4594;50.994;7.126;2024-03-07T07:20:15;101352.00;;;12.10
9119;BMP180;4594;50.994;7.126;2024-03-07T07:22:46;101352.00;;;12.40
9119;BMP180;4594;50.994;7.126;2024-03-07T07:25:14;101350.00;;;12.60
9119;BMP180;4594;50.994;7.126;2024-03-07T07:27:48;101352.00;;;12.90
9119;BMP180;4594;50.994;7.126;2024-03-07T07:30:16;101345.00;;;13.20
9119;BMP180;4594;50.994;7.126;2024-03-07T07:32:43;101362.00;;;13.50
9119;BMP180;4594;50.994;7.126;2024-03-07T07:35:11;101355.00;;;13.80
9119;BMP180;4594;50.994;7.126;2024-03-07T07:37:51;101342.00;;;14.00
9119;BMP180;4594;50.994;7.126;2024-03-07T07:40:22;101351.00;;;14.30
9119;BMP180;4594;50.994;7.126;2024-03-07T07:42:51;101341.00;;;14.50
9119;BMP180;4594;50.994;7.126;2024-03-07T07:45:20;101339.00;;;14.90
9119;BMP180;4594;50.994;7.126;2024-03-07T07:47:49;101345.00;;;15.30
9119;BMP180;4594;50.994;7.126;2024-03-07T07:50:17;101347.00;;;15.80
9119;BMP180;4594;50.994;7.126;2024-03-07T07:52:51;101348.00;;;16.30
9119;BMP180;4594;50.994;7.126;2024-03-07T07:55:24;101345.00;;;16.70
9119;BMP180;4594;50.994;7.126;2024-03-07T07:57:58;101352.00;;;17.20
9119;BMP180;4594;50.994;7.126;2024-03-07T08:00:28;101356.00;;;17.60
9119;BMP180;4594;50.994;7.126;2024-03-07T08:05:28;101358.00;;;18.40
9119;BMP180;4594;50.994;7.126;2024-03-07T08:08:02;101352.00;;;18.80
9119;BMP180;4594;50.994;7.126;2024-03-07T08:10:32;101343.00;;;19.10
9119;BMP180;4594;50.994;7.126;2024-03-07T08:12:59;101345.00;;;19.60
9119;BMP180;4594;50.994;7.126;2024-03-07T08:15:27;101333.00;;;20.00
9119;BMP180;4594;50.994;7.126;2024-03-07T08:17:58;101343.00;;;20.50
9119;BMP180;4594;50.994;7.126;2024-03-07T08:20:26;101327.00;;;21.00
9119;BMP180;4594;50.994;7.126;2024-03-07T08:22:54;101336.00;;;21.50
9119;BMP180;4594;50.994;7.126;2024-03-07T08:25:22;101323.00;;;21.90
9119;BMP180;4594;50.994;7.126;2024-03-07T08:27:54;101346.00;;;22.30
9119;BMP180;4594;50.994;7.126;2024-03-07T08:30:21;101336.00;;;22.60
9119;BMP180;4594;50.994;7.126;2024-03-07T08:32:54;101333.00;;;22.70
9119;BMP180;4594;50.994;7.126;2024-03-07T08:35:21;101332.00;;;22.90
9119;BMP180;4594;50.994;7.126;2024-03-07T08:37:50;101332.00;;;23.30
9119;BMP180;4594;50.994;7.126;2024-03-07T08:40:22;101333.00;;;23.80
9119;BMP180;4594;50.994;7.126;2024-03-07T08:42:51;101328.00;;;24.30
9119;BMP180;4594;50.994;7.126;2024-03-07T08:45:18;101326.00;;;24.80
9119;BMP180;4594;50.994;7.126;2024-03-07T08:47:49;101325.00;;;25.20
9119;BMP180;4594;50.994;7.126;2024-03-07T08:50:16;101319.00;;;25.60
9119;BMP180;4594;50.994;7.126;2024-03-07T08:52:45;101314.00;;;25.90
9119;BMP180;4594;50.994;7.126;2024-03-07T08:55:13;101325.00;;;26.30
9119;BMP180;4594;50.994;7.126;2024-03-07T08:57:43;101336.00;;;26.60
9119;BMP180;4594;50.994;7.126;2024-03-07T09:00:12;101331.00;;;26.90
9119;BMP180;4594;50.994;7.126;2024-03-07T09:02:52;101333.00;;;26.90
9119;BMP180;4594;50.994;7.126;2024-03-07T09:05:19;101326.00;;;26.90
9119;BMP180;4594;50.994;7.126;2024-03-07T09:07:46;101329.00;;;27.00
9119;BMP180;4594;50.994;7.126;2024-03-07T09:10:13;101327.00;;;27.10
9119;BMP180;4594;50.994;7.126;2024-03-07T09:12:40;101334.00;;;27.20
9119;BMP180;4594;50.994;7.126;2024-03-07T09:15:07;101336.00;;;27.30
9119;BMP180;4594;50.994;7.126;2024-03-07T09:17:32;101346.00;;;27.50
9119;BMP180;4594;50.994;7.126;2024-03-07T09:19:58;101334.00;;;27.50
9119;BMP180;4594;50.994;7.126;2024-03-07T09:22:24;101332.00;;;27.50
9119;BMP180;4594;50.994;7.126;2024-03-07T09:24:50;101333.00;;;27.50
9119;BMP180;4594;50.994;7.126;2024-03-07T09:27:17;101344.00;;;27.50
9119;BMP180;4594;50.994;7.126;2024-03-07T09:29:45;101347.00;;;27.30
9119;BMP180;4594;50.994;7.126;2024-03-07T09:32:13;101332.00;;;27.00
9119;BMP180;4594;50.994;7.126;2024-03-07T09:34:39;101325.00;;;27.00
9119;BMP180;4594;50.994;7.126;2024-03-07T09:37:05;101338.00;;;26.80
9119;BMP180;4594;50.994;7.126;2024-03-07T09:39:34;101347.00;;;26.00
9119;BMP180;4594;50.994;7.126;2024-03-07T09:42:04;101340.00;;;25.10
9119;BMP180;4594;50.994;7.126;2024-03-07T09:44:34;101336.00;;;24.30
9119;BMP180;4594;50.994;7.126;2024-03-07T09:47:01;101340.00;;;23.60
9119;BMP180;4594;50.994;7.126;2024-03-07T09:49:28;101331.00;;;23.00
9119;BMP180;4594;50.994;7.126;2024-03-07T09:51:59;101329.00;;;22.30
9119;BMP180;4594;50.994;7.126;2024-03-07T09:54:26;101335.00;;;21.70
9119;BMP180;4594;50.994;7.126;2024-03-07T09:56:59;101337.00;;;21.00
9119;BMP180;4594;50.994;7.126;2024-03-07T09:59:28;101336.00;;;20.50
9119;BMP180;4594;50.994;7.126;2024-03-07T10:01:59;101340.00;;;20.00
9119;BMP180;4594;50.994;7.126;2024-03-07T10:04:38;101333.00;;;19.60
9119;BMP180;4594;50.994;7.126;2024-03-07T10:07:07;101322.00;;;19.30
9119;BMP180;4594;50.994;7.126;2024-03-07T10:09:38;101321.00;;;19.10
9119;BMP180;4594;50.994;7.126;2024-03-07T10:12:06;101326.00;;;18.90
9119;BMP180;4594;50.994;7.126;2024-03-07T10:14:52;101318.00;;;18.80
9119;BMP180;4594;50.994;7.126;2024-03-07T10:17:24;101313.00;;;18.80
9119;BMP180;4594;50.994;7.126;2024-03-07T10:19:51;101318.00;;;18.70
9119;BMP180;4594;50.994;7.126;2024-03-07T10:22:19;101294.00;;;18.80
9119;BMP180;4594;50.994;7.126;2024-03-07T10:24:56;101287.00;;;19.20
9119;BMP180;4594;50.994;7.126;2024-03-07T10:27:23;101283.00;;;19.90
9119;BMP180;4594;50.994;7.126;2024-03-07T10:29:52;101286.00;;;20.80
9119;BMP180;4594;50.994;7.126;2024-03-07T10:32:22;101282.00;;;21.70
9119;BMP180;4594;50.994;7.126;2024-03-07T10:34:51;101296.00;;;22.20
9119;BMP180;4594;50.994;7.126;2024-03-07T10:37:17;101294.00;;;22.30
9119;BMP180;4594;50.994;7.126;2024-03-07T10:39:45;101300.00;;;22.40
9119;BMP180;4594;50.994;7.126;2024-03-07T10:42:14;101299.00;;;22.20
9119;BMP180;4594;50.994;7.126;2024-03-07T10:44:45;101301.00;;;21.90
9119;BMP180;4594;50.994;7.126;2024-03-07T10:47:19;101284.00;;;21.70
9119;BMP180;4594;50.994;7.126;2024-03-07T10:50:15;101274.00;;;22.00
9119;BMP180;4594;50.994;7.126;2024-03-07T10:53:05;101274.00;;;22.50
9119;BMP180;4594;50.994;7.126;2024-03-07T10:56:21;101284.00;;;22.40
9119;BMP180;4594;50.994;7.126;2024-03-07T10:59:08;101287.00;;;22.10
9119;BMP180;4594;50.994;7.126;2024-03-07T11:01:55;101288.00;;;21.80
9119;BMP180;4594;50.994;7.126;2024-03-07T11:04:23;101275.00;;;21.30
9119;BMP180;4594;50.994;7.126;2024-03-07T11:06:49;101276.00;;;20.90
9119;BMP180;4594;50.994;7.126;2024-03-07T11:09:15;101282.00;;;20.60
9119;BMP180;4594;50.994;7.126;2024-03-07T11:11:49;101253.00;;;20.20
9119;BMP180;4594;50.994;7.126;2024-03-07T11:14:16;101252.00;;;19.90
9119;BMP180;4594;50.994;7.126;2024-03-07T11:16:43;101244.00;;;19.80
9119;BMP180;4594;50.994;7.126;2024-03-07T11:19:26;101252.00;;;19.70
9119;BMP180;4594;50.994;7.126;2024-03-07T11:21:56;101259.00;;;19.60
9119;BMP180;4594;50.994;7.126;2024-03-07T11:24:27;101245.00;;;19.60
9119;BMP180;4594;50.994;7.126;2024-03-07T11:27:02;101244.00;;;19.50
9119;BMP180;4594;50.994;7.126;2024-03-07T11:29:48;101240.00;;;19.30
9119;BMP180;4594;50.994;7.126;2024-03-07T11:32:18;101231.00;;;19.20
9119;BMP180;4594;50.994;7.126;2024-03-07T11:34:47;101226.00;;;19.10
9119;BMP180;4594;50.994;7.126;2024-03-07T11:37:18;101229.00;;;19.00
9119;BMP180;4594;50.994;7.126;2024-03-07T11:39:49;101229.00;;;18.80
9119;BMP180;4594;50.994;7.126;2024-03-07T11:42:29;101210.00;;;18.50
9119;BMP180;4594;50.994;7.126;2024-03-07T11:44:58;101237.00;;;18.30
9119;BMP180;4594;50.994;7.126;2024-03-07T11:47:36;101225.00;;;18.00
9119;BMP180;4594;50.994;7.126;2024-03-07T11:50:05;101219.00;;;17.80
9119;BMP180;4594;50.994;7.126;2024-03-07T11:52:36;101209.00;;;17.60
9119;BMP180;4594;50.994;7.126;2024-03-07T11:55:04;101189.00;;;17.50
9119;BMP180;4594;50.994;7.126;2024-03-07T11:57:30;101181.00;;;17.40
9119;BMP180;4594;50.994;7.126;2024-03-07T12:00:00;101199.00;;;17.40
9119;BMP180;4594;50.994;7.126;2024-03-07T12:02:27;101188.00;;;17.30
9119;BMP180;4594;50.994;7.126;2024-03-07T12:04:54;101194.00;;;17.30
9119;BMP180;4594;50.994;7.126;2024-03-07T12:07:20;101202.00;;;17.30
9119;BMP180;4594;50.994;7.126;2024-03-07T12:09:49;101185.00;;;17.20
9119;BMP180;4594;50.994;7.126;2024-03-07T12:12:22;101188.00;;;17.20
9119;BMP180;4594;50.994;7.126;2024-03-07T12:14:50;101191.00;;;17.10
9119;BMP180;4594;50.994;7.126;2024-03-07T12:17:23;101160.00;;;17.10
9119;BMP180;4594;50.994;7.126;2024-03-07T12:19:50;101188.00;;;17.00
9119;BMP180;4594;50.994;7.126;2024-03-07T12:22:20;101181.00;;;16.90
9119;BMP180;4594;50.994;7.126;2024-03-07T12:25:00;101169.00;;;16.90
9119;BMP180;4594;50.994;7.126;2024-03-07T12:27:29;101172.00;;;17.00
9119;BMP180;4594;50.994;7.126;2024-03-07T12:29:55;101168.00;;;17.00
9119;BMP180;4594;50.994;7.126;2024-03-07T12:32:22;101159.00;;;17.00
9119;BMP180;4594;50.994;7.126;2024-03-07T12:34:48;101156.00;;;17.00
9119;BMP180;4594;50.994;7.126;2024-03-07T12:37:14;101162.00;;;17.00
9119;BMP180;4594;50.994;7.126;2024-03-07T12:39:43;101140.00;;;17.00
9119;BMP180;4594;50.994;7.126;2024-03-07T12:42:14;101164.00;;;17.00
9119;BMP180;4594;50.994;7.126;2024-03-07T12:44:45;101166.00;;;17.00
9119;BMP180;4594;50.994;7.126;2024-03-07T12:47:15;101156.00;;;16.90
9119;BMP180;4594;50.994;7.126;2024-03-07T12:49:45;101128.00;;;16.80
9119;BMP180;4594;50.994;7.126;2024-03-07T12:52:12;101143.00;;;16.90
9119;BMP180;4594;50.994;7.126;2024-03-07T12:54:41;101148.00;;;16.90
9119;BMP180;4594;50.994;7.126;2024-03-07T12:57:10;101134.00;;;17.00
9119;BMP180;4594;50.994;7.126;2024-03-07T12:59:38;101137.00;;;16.90
9119;BMP180;4594;50.994;7.126;2024-03-07T13:02:07;101106.00;;;16.90
9119;BMP180;4594;50.994;7.126;2024-03-07T13:04:36;101125.00;;;16.90
9119;BMP180;4594;50.994;7.126;2024-03-07T13:07:06;101122.00;;;16.80
9119;BMP180;4594;50.994;7.126;2024-03-07T13:09:36;101133.00;;;16.80
9119;BMP180;4594;50.994;7.126;2024-03-07T13:12:03;101116.00;;;16.80
9119;BMP180;4594;50.994;7.126;2024-03-07T13:14:33;101113.00;;;16.80
9119;BMP180;4594;50.994;7.126;2024-03-07T13:17:08;101109.00;;;16.70
9119;BMP180;4594;50.994;7.126;2024-03-07T13:19:33;101114.00;;;16.70
9119;BMP180;4594;50.994;7.126;2024-03-07T13:21:59;101114.00;;;16.60
9119;BMP180;4594;50.994;7.126;2024-03-07T13:24:27;101103.00;;;16.40
9119;BMP180;4594;50.994;7.126;2024-03-07T13:26:53;101102.00;;;16.30
9119;BMP180;4594;50.994;7.126;2024-03-07T13:29:19;101096.00;;;16.30
9119;BMP180;4594;50.994;7.126;2024-03-07T13:31:51;101116.00;;;16.40
9119;BMP180;4594;50.994;7.126;2024-03-07T13:34:18;101104.00;;;16.50
9119;BMP180;4594;50.994;7.126;2024-03-07T13:36:44;101116.00;;;16.40
9119;BMP180;4594;50.994;7.126;2024-03-07T13:39:12;101113.00;;;16.40
9119;BMP180;4594;50.994;7.126;2024-03-07T13:41:43;101111.00;;;16.30
9119;BMP180;4594;50.994;7.126;2024-03-07T13:44:10;101115.00;;;16.20
9119;BMP180;4594;50.994;7.126;2024-03-07T13:46:36;101106.00;;;16.10
9119;BMP180;4594;50.994;7.126;2024-03-07T13:49:03;101106.00;;;16.00
9119;BMP180;4594;50.994;7.126;2024-03-07T13:51:34;101093.00;;;15.90
9119;BMP180;4594;50.994;7.126;2024-03-07T13:54:05;101090.00;;;15.90
9119;BMP180;4594;50.994;7.126;2024-03-07T13:57:12;101096.00;;;15.80
9119;BMP180;4594;50.994;7.126;2024-03-07T14:00:05;101089.00;;;15.90
9119;BMP180;4594;50.994;7.126;2024-03-07T14:03:36;101091.00;;;15.90
9119;BMP180;4594;50.994;7.126;2024-03-07T14:06:26;101094.00;;;15.90
9119;BMP180;4594;50.994;7.126;2024-03-07T14:09:41;101100.00;;;15.70
9119;BMP180;4594;50.994;7.126;2024-03-07T14:12:49;101096.00;;;15.60
9119;BMP180;4594;50.994;7.126;2024-03-07T14:19:02;101093.00;;;15.40
9119;BMP180;4594;50.994;7.126;2024-03-07T14:27:31;101075.00;;;15.30
9119;BMP180;4594;50.994;7.126;2024-03-07T14:30:36;101063.00;;;15.40
9119;BMP180;4594;50.994;7.126;2024-03-07T14:33:06;101057.00;;;15.40
9119;BMP180;4594;50.994;7.126;2024-03-07T14:36:09;101081.00;;;15.30
9119;BMP180;4594;50.994;7.126;2024-03-07T14:38:57;101067.00;;;15.30
9119;BMP180;4594;50.994;7.126;2024-03-07T14:44:14;101063.00;;;15.30
9119;BMP180;4594;50.994;7.126;2024-03-07T14:46:41;101064.00;;;15.40
9119;BMP180;4594;50.994;7.126;2024-03-07T14:49:12;101066.00;;;15.40
9119;BMP180;4594;50.994;7.126;2024-03-07T14:51:39;101060.00;;;15.40
9119;BMP180;4594;50.994;7.126;2024-03-07T14:54:05;101068.00;;;15.40
9119;BMP180;4594;50.994;7.126;2024-03-07T14:56:31;101053.00;;;15.40